Time;durP1;ratioP1;P1;durP2;ratioP2;P2;SDS_P1;SDS_P2;PMS_P1;PMS_P2;Temp;Humidity;BMP_temperature;BMP_pressure;BME280_temperature;BME280_humidity;BME280_pressure;Samples;Min_cycle;Max_cycle;Signal;HPM_P1;HPM_P2
2021/08/11 00:00:47;;;;;;;;;;;;;;;24.92;67.08;100781.03;5055757;28;1906;-60
2021/08/11 00:03:13;;;;;;;;;;;;;;;24.99;66.48;100765.81;5055274;28;1572;-60
2021/08/11 00:05:41;;;;;;;;;;;;;;;24.96;66.48;100759.91;5054881;28;1058;-61
2021/08/11 00:08:07;;;;;;;;;;;;;;;24.95;65.98;100764.47;5055644;28;1739;-63
2021/08/11 00:10:35;;;;;;;;;;;;;;;24.90;66.00;100760.59;5055159;28;1508;-61
2021/08/11 00:13:02;;;;;;;;;;;;;;;24.86;66.45;100781.75;5055429;28;1584;-63
2021/08/11 00:15:29;;;;;;;;;;;;;;;24.84;66.52;100754.03;5055445;28;1373;-63
2021/08/11 00:17:55;;;;;;;;;;;;;;;24.81;66.09;100759.81;5054530;28;1964;-63
2021/08/11 00:20:24;;;;;;;;;;;;;;;24.76;66.07;100754.91;5055528;28;1903;-63
2021/08/11 00:22:50;;;;;;;;;;;;;;;24.81;66.67;100768.75;5055041;28;1567;-63
2021/08/11 00:25:17;;;;;;;;;;;;;;;24.83;66.86;100754.19;5054636;28;1484;-63
2021/08/11 00:27:45;;;;;;;;;;;;;;;24.84;65.95;100761.31;5054284;28;1325;-60
2021/08/11 00:30:12;;;;;;;;;;;;;;;24.85;66.58;100754.84;5054581;28;1479;-60
2021/08/11 00:32:39;;;;;;;;;;;;;;;24.88;65.88;100776.16;5054831;28;1569;-61
2021/08/11 00:35:06;;;;;;;;;;;;;;;24.94;65.69;100779.00;5055755;28;1502;-63
2021/08/11 00:37:32;;;;;;;;;;;;;;;24.93;65.68;100777.34;5054643;28;1711;-60
2021/08/11 00:39:59;;;;;;;;;;;;;;;24.91;65.46;100768.56;5054737;28;1981;-63
2021/08/11 00:42:26;;;;;;;;;;;;;;;24.86;66.25;100765.50;5054100;28;1503;-60
2021/08/11 00:44:54;;;;;;;;;;;;;;;24.87;65.95;100767.22;5054718;28;1667;-63
2021/08/11 00:47:21;;;;;;;;;;;;;;;24.87;66.18;100767.22;5054624;28;1447;-61
2021/08/11 00:49:48;;;;;;;;;;;;;;;24.89;66.18;100762.47;5055265;28;1107;-63
2021/08/11 00:52:14;;;;;;;;;;;;;;;24.91;66.22;100768.56;5054153;28;1520;-60
2021/08/11 00:54:42;;;;;;;;;;;;;;;24.89;65.83;100767.00;5054379;28;1576;-60
2021/08/11 00:57:10;;;;;;;;;;;;;;;24.81;66.18;100767.91;5054222;28;1381;-60
2021/08/11 00:59:38;;;;;;;;;;;;;;;24.82;66.43;100769.59;5054204;28;1902;-60
2021/08/11 01:02:07;;;;;;;;;;;;;;;24.83;65.65;100765.88;5050164;28;1545;-60
2021/08/11 01:04:34;;;;;;;;;;;;;;;24.87;66.17;100769.06;5055118;28;1060;-60
2021/08/11 01:07:02;;;;;;;;;;;;;;;24.87;65.45;100764.50;5052938;28;1723;-60
2021/08/11 01:09:31;;;;;;;;;;;;;;;24.82;65.47;100753.34;5054621;28;1675;-63
2021/08/11 01:11:58;;;;;;;;;;;;;;;24.80;65.64;100752.69;5054217;28;1346;-63
2021/08/11 01:14:25;;;;;;;;;;;;;;;24.74;66.49;100747.97;5049721;28;1401;-61
2021/08/11 01:16:51;;;;;;;;;;;;;;;24.81;66.31;100757.09;5052654;28;1388;-63
2021/08/11 01:19:20;;;;;;;;;;;;;;;24.79;65.50;100740.19;5054508;28;1906;-60
2021/08/11 01:21:50;;;;;;;;;;;;;;;24.76;65.85;100741.38;5054169;28;1767;-63
2021/08/11 01:24:21;;;;;;;;;;;;;;;24.75;65.48;100730.72;5054430;28;1568;-60
2021/08/11 01:27:00;;;;;;;;;;;;;;;24.68;66.40;100741.41;5050422;28;1373;-63
2021/08/11 01:29:30;;;;;;;;;;;;;;;24.69;66.19;100748.50;5050706;28;1532;-60
2021/08/11 01:31:58;;;;;;;;;;;;;;;24.70;66.12;100749.34;5054238;28;1642;-63
2021/08/11 01:34:29;;;;;;;;;;;;;;;24.69;65.78;100723.31;5054241;28;1392;-60
2021/08/11 01:36:59;;;;;;;;;;;;;;;24.76;65.87;100727.00;5054147;28;1734;-60
2021/08/11 01:39:34;;;;;;;;;;;;;;;24.69;65.95;100724.16;5053585;28;1968;-63
2021/08/11 01:42:04;;;;;;;;;;;;;;;24.69;66.29;100731.41;5053420;28;1436;-61
2021/08/11 01:44:36;;;;;;;;;;;;;;;24.61;65.86;100725.03;5052790;28;1437;-60
2021/08/11 01:47:04;;;;;;;;;;;;;;;24.71;65.60;100730.25;5053820;28;1580;-63
2021/08/11 01:49:34;;;;;;;;;;;;;;;24.71;65.50;100718.56;5053955;28;1012;-63
2021/08/11 01:52:01;;;;;;;;;;;;;;;24.73;65.52;100724.66;5053877;28;1527;-63
2021/08/11 01:54:29;;;;;;;;;;;;;;;24.70;65.32;100716.91;5053872;28;1444;-60
2021/08/11 01:56:57;;;;;;;;;;;;;;;24.71;66.09;100721.28;5056254;28;1852;-63
2021/08/11 01:59:24;;;;;;;;;;;;;;;24.74;66.22;100734.47;5057764;28;1980;-61
2021/08/11 02:01:51;;;;;;;;;;;;;;;24.71;66.10;100730.25;5055194;28;1461;-60
2021/08/11 02:04:17;;;;;;;;;;;;;;;24.76;66.02;100732.41;5057733;28;1393;-60
2021/08/11 02:06:45;;;;;;;;;;;;;;;24.72;65.97;100721.09;5056484;28;1711;-63
2021/08/11 02:09:13;;;;;;;;;;;;;;;24.63;66.44;100721.31;5057812;28;1503;-60
2021/08/11 02:11:41;;;;;;;;;;;;;;;24.40;65.85;100720.16;5057371;28;1325;-62
2021/08/11 02:14:08;;;;;;;;;;;;;;;24.36;65.73;100723.38;5057343;28;1318;-60
2021/08/11 02:16:34;;;;;;;;;;;;;;;24.35;66.15;100717.13;5057802;28;1577;-60
2021/08/11 02:19:01;;;;;;;;;;;;;;;24.46;65.79;100720.50;5057478;28;1906;-63
2021/08/11 02:21:27;;;;;;;;;;;;;;;24.34;65.48;100703.78;5057593;28;1547;-63
2021/08/11 02:23:55;;;;;;;;;;;;;;;24.41;64.99;100719.16;5056490;28;1617;-60
2021/08/11 02:26:26;;;;;;;;;;;;;;;24.34;64.99;100707.31;5056934;28;1060;-63
2021/08/11 02:28:58;;;;;;;;;;;;;;;24.35;64.19;100705.47;5056678;28;1480;-60
2021/08/11 02:31:32;;;;;;;;;;;;;;;24.17;64.45;100717.34;5057470;28;1695;-63
2021/08/11 02:34:03;;;;;;;;;;;;;;;24.37;63.72;100720.50;5057060;28;1866;-60
2021/08/11 02:36:31;;;;;;;;;;;;;;;24.48;63.34;100716.59;5056417;28;1418;-63
2021/08/11 02:39:01;;;;;;;;;;;;;;;24.38;63.13;100721.34;5056421;28;1911;-63
2021/08/11 02:41:30;;;;;;;;;;;;;;;24.46;62.91;100726.72;5057108;28;1877;-63
2021/08/11 02:44:00;;;;;;;;;;;;;;;24.58;62.35;100721.84;5057377;28;1699;-60
2021/08/11 02:46:27;;;;;;;;;;;;;;;24.57;62.48;100710.19;5057227;28;1695;-63
2021/08/11 02:48:57;;;;;;;;;;;;;;;24.70;62.41;100719.59;5056246;28;1727;-64
2021/08/11 02:51:26;;;;;;;;;;;;;;;24.73;62.69;100720.09;5056803;28;1427;-63
2021/08/11 02:53:54;;;;;;;;;;;;;;;24.68;63.31;100729.75;5056847;28;1619;-60
2021/08/11 02:56:22;;;;;;;;;;;;;;;24.68;62.93;100719.75;5057238;28;1052;-60
2021/08/11 02:58:49;;;;;;;;;;;;;;;24.64;62.95;100723.00;5056884;28;1762;-63
2021/08/11 03:01:16;;;;;;;;;;;;;;;24.63;63.51;100732.13;5056666;28;1969;-60
2021/08/11 03:03:43;;;;;;;;;;;;;;;24.58;63.20;100721.84;5056733;28;1707;-60
2021/08/11 03:06:09;;;;;;;;;;;;;;;24.60;63.87;100728.75;5055619;28;1604;-63
2021/08/11 03:08:37;;;;;;;;;;;;;;;24.70;63.41;100738.53;5056722;28;1400;-60
2021/08/11 03:11:03;;;;;;;;;;;;;;;24.73;62.84;100744.44;5056866;28;1743;-60
2021/08/11 03:13:31;;;;;;;;;;;;;;;24.72;63.21;100736.50;5056667;28;1527;-63
2021/08/11 03:15:58;;;;;;;;;;;;;;;24.76;63.67;100737.84;5056373;28;1471;-63
2021/08/11 03:18:24;;;;;;;;;;;;;;;24.72;63.36;100747.31;5056018;28;1354;-63
2021/08/11 03:20:51;;;;;;;;;;;;;;;24.68;62.77;100730.59;5057015;28;1911;-60
2021/08/11 03:23:18;;;;;;;;;;;;;;;24.71;63.72;100751.00;5056238;28;1758;-60
2021/08/11 03:25:45;;;;;;;;;;;;;;;24.69;62.92;100747.66;5055993;28;1774;-63
2021/08/11 03:28:12;;;;;;;;;;;;;;;24.68;62.95;100740.56;5055591;28;1540;-63
2021/08/11 03:30:42;;;;;;;;;;;;;;;24.58;62.89;100735.34;5056381;28;1627;-63
2021/08/11 03:33:09;;;;;;;;;;;;;;;24.69;62.86;100753.06;5055886;28;1384;-63
2021/08/11 03:35:36;;;;;;;;;;;;;;;24.67;63.54;100747.84;5056891;28;1337;-61
2021/08/11 03:38:02;;;;;;;;;;;;;;;24.68;62.88;100743.28;5056242;28;1782;-63
2021/08/11 03:40:29;;;;;;;;;;;;;;;24.74;62.59;100746.09;5055444;28;1977;-64
2021/08/11 03:42:56;;;;;;;;;;;;;;;24.76;62.73;100759.47;5055882;28;1607;-63
2021/08/11 03:45:22;;;;;;;;;;;;;;;24.69;62.65;100753.91;5055569;28;1693;-63
2021/08/11 03:47:50;;;;;;;;;;;;;;;24.72;62.28;100761.66;5055841;28;1424;-61
2021/08/11 03:50:20;;;;;;;;;;;;;;;24.75;63.29;100769.44;5056064;28;1396;-63
2021/08/11 03:52:46;;;;;;;;;;;;;;;24.79;62.77;100757.25;5055982;28;1766;-60
2021/08/11 03:55:13;;;;;;;;;;;;;;;24.85;63.12;100771.97;5055614;28;1250;-60
2021/08/11 03:57:40;;;;;;;;;;;;;;;24.76;63.32;100778.41;5055298;28;1259;-61
2021/08/11 04:00:07;;;;;;;;;;;;;;;24.77;63.70;100783.63;5055635;28;1977;-60
2021/08/11 04:02:34;;;;;;;;;;;;;;;24.74;63.39;100783.13;5055494;28;1483;-63
2021/08/11 04:05:04;;;;;;;;;;;;;;;24.76;62.87;100783.81;5056231;28;1353;-61
2021/08/11 04:07:30;;;;;;;;;;;;;;;24.80;63.36;100777.03;5050865;28;1381;-63
2021/08/11 04:09:57;;;;;;;;;;;;;;;24.77;63.91;100785.47;5054618;28;1186;-63
2021/08/11 04:12:23;;;;;;;;;;;;;;;24.76;63.51;100794.63;5054305;28;1381;-61
2021/08/11 04:14:50;;;;;;;;;;;;;;;24.80;63.35;100799.50;5054093;28;1446;-63
2021/08/11 04:17:16;;;;;;;;;;;;;;;24.88;63.16;100801.34;5055080;28;1372;-63
2021/08/11 04:19:43;;;;;;;;;;;;;;;24.96;62.51;100786.94;5055565;28;1976;-62
2021/08/11 04:22:11;;;;;;;;;;;;;;;24.95;62.89;100796.94;5054913;28;1543;-60
2021/08/11 04:24:37;;;;;;;;;;;;;;;25.00;63.60;100799.09;5046619;28;1631;-63
2021/08/11 04:27:04;;;;;;;;;;;;;;;24.97;63.67;100791.38;5055091;28;1580;-63
2021/08/11 04:29:31;;;;;;;;;;;;;;;25.00;62.71;100794.53;5055188;28;1580;-63
2021/08/11 04:31:57;;;;;;;;;;;;;;;25.00;63.09;100810.78;5054662;28;1389;-63
2021/08/11 04:34:24;;;;;;;;;;;;;;;25.04;63.11;100810.44;5055078;28;1543;-60
2021/08/11 04:36:50;;;;;;;;;;;;;;;24.99;63.41;100803.69;5054642;28;1562;-61
2021/08/11 04:39:18;;;;;;;;;;;;;;;24.99;62.96;100803.69;5054713;28;1413;-60
2021/08/11 04:41:45;;;;;;;;;;;;;;;25.05;64.34;100823.78;5054149;28;1910;-63
2021/08/11 04:44:12;;;;;;;;;;;;;;;25.01;63.53;100814.34;5054421;28;1314;-62
2021/08/11 04:46:38;;;;;;;;;;;;;;;25.05;63.42;100822.94;5055004;28;1603;-63
2021/08/11 04:49:05;;;;;;;;;;;;;;;25.07;62.74;100818.19;5053641;28;1484;-61
2021/08/11 04:51:31;;;;;;;;;;;;;;;25.03;62.51;100809.59;5053797;28;1641;-64
2021/08/11 04:53:58;;;;;;;;;;;;;;;25.01;62.65;100822.47;5054161;28;1421;-62
2021/08/11 04:56:26;;;;;;;;;;;;;;;25.00;63.35;100821.59;5055123;28;1051;-64
2021/08/11 04:58:53;;;;;;;;;;;;;;;25.00;62.95;100829.72;5054908;28;1624;-64
2021/08/11 05:01:20;;;;;;;;;;;;;;;24.93;62.80;100825.16;5054299;28;1903;-63
2021/08/11 05:03:46;;;;;;;;;;;;;;;24.96;63.82;100830.25;5054501;28;1706;-63
2021/08/11 05:06:13;;;;;;;;;;;;;;;24.90;62.93;100830.94;5053125;28;1354;-63
2021/08/11 05:08:39;;;;;;;;;;;;;;;24.90;62.93;100815.53;5055090;28;1078;-63
2021/08/11 05:11:06;;;;;;;;;;;;;;;24.98;62.81;100823.63;5053199;28;1500;-61
2021/08/11 05:13:34;;;;;;;;;;;;;;;25.01;63.01;100828.72;5053138;28;1786;-62
2021/08/11 05:16:07;;;;;;;;;;;;;;;25.03;63.59;100836.66;5049672;28;1231;-62
2021/08/11 05:18:34;;;;;;;;;;;;;;;25.06;63.18;100848.97;5049158;28;1444;-62
2021/08/11 05:21:00;;;;;;;;;;;;;;;25.01;63.93;100855.75;5052298;28;1909;-63
2021/08/11 05:23:27;;;;;;;;;;;;;;;24.97;64.00;100846.31;5052902;28;1747;-63
2021/08/11 05:25:54;;;;;;;;;;;;;;;25.00;62.79;100839.69;5052281;28;1409;-63
2021/08/11 05:28:20;;;;;;;;;;;;;;;25.02;62.77;100841.19;5049543;28;1476;-61
2021/08/11 05:30:48;;;;;;;;;;;;;;;25.14;62.89;100841.66;5049668;28;1586;-62
2021/08/11 05:33:15;;;;;;;;;;;;;;;25.13;62.69;100844.56;5052532;28;1673;-62
2021/08/11 05:35:42;;;;;;;;;;;;;;;25.24;63.13;100840.66;5050929;28;1306;-62
2021/08/11 05:38:08;;;;;;;;;;;;;;;25.38;62.64;100846.16;5052959;28;1723;-61
2021/08/11 05:40:35;;;;;;;;;;;;;;;25.44;62.63;100839.22;5045920;28;1905;-61
2021/08/11 05:43:01;;;;;;;;;;;;;;;25.48;63.51;100845.13;5045477;28;1449;-61
2021/08/11 05:45:28;;;;;;;;;;;;;;;25.47;64.42;100844.28;5050339;28;1553;-62
2021/08/11 05:47:56;;;;;;;;;;;;;;;25.39;63.44;100836.22;5051101;28;1564;-61
2021/08/11 05:50:23;;;;;;;;;;;;;;;25.45;64.03;100840.09;5040804;28;1548;-62
2021/08/11 05:52:49;;;;;;;;;;;;;;;25.54;63.79;100830.88;5046827;28;1519;-60
2021/08/11 05:55:16;;;;;;;;;;;;;;;25.41;62.85;100834.16;5052457;28;1631;-60
2021/08/11 05:57:43;;;;;;;;;;;;;;;25.59;63.63;100837.44;5053416;28;1474;-62
2021/08/11 06:00:10;;;;;;;;;;;;;;;25.67;63.64;100842.00;5053503;28;1977;-61
2021/08/11 06:02:38;;;;;;;;;;;;;;;25.56;62.63;100836.97;5044572;28;1674;-61
2021/08/11 06:05:07;;;;;;;;;;;;;;;25.67;61.86;100850.09;5052816;28;1408;-66
2021/08/11 06:07:34;;;;;;;;;;;;;;;25.77;61.86;100839.88;5051976;28;1664;-61
2021/08/11 06:10:01;;;;;;;;;;;;;;;25.75;62.01;100857.34;5053312;28;1449;-63
2021/08/11 06:12:27;;;;;;;;;;;;;;;25.76;61.76;100842.78;5053559;28;1564;-61
2021/08/11 06:14:54;;;;;;;;;;;;;;;25.78;61.79;100852.44;5052694;28;1361;-63
2021/08/11 06:17:21;;;;;;;;;;;;;;;25.75;62.46;100858.19;5048066;28;1374;-63
2021/08/11 06:19:47;;;;;;;;;;;;;;;25.73;61.44;100853.97;5054055;28;1479;-63
2021/08/11 06:22:16;;;;;;;;;;;;;;;25.76;61.62;100853.59;5053010;28;1902;-61
2021/08/11 06:24:42;;;;;;;;;;;;;;;25.80;60.53;100866.63;5053675;28;1426;-61
2021/08/11 06:27:09;;;;;;;;;;;;;;;25.78;62.07;100847.00;5052897;28;1443;-63
2021/08/11 06:29:36;;;;;;;;;;;;;;;25.87;61.55;100845.06;5053255;28;1620;-61
2021/08/11 06:32:03;;;;;;;;;;;;;;;25.87;61.55;100850.50;5044777;28;1344;-62
2021/08/11 06:34:30;;;;;;;;;;;;;;;25.89;61.47;100842.19;5049082;28;1272;-61
2021/08/11 06:36:56;;;;;;;;;;;;;;;25.88;60.54;100845.91;5051328;28;1551;-63
2021/08/11 06:39:30;;;;;;;;;;;;;;;25.88;60.86;100851.34;5049953;28;1411;-61
2021/08/11 06:41:57;;;;;;;;;;;;;;;25.89;61.37;100848.44;5050591;28;1971;-61
2021/08/11 06:44:23;;;;;;;;;;;;;;;25.93;60.95;100838.97;5055872;28;1382;-63
2021/08/11 06:46:50;;;;;;;;;;;;;;;25.91;61.13;100842.91;5055802;28;1287;-61
2021/08/11 06:49:17;;;;;;;;;;;;;;;26.02;60.91;100842.44;5056886;28;1754;-61
2021/08/11 06:51:43;;;;;;;;;;;;;;;25.98;59.96;100824.88;5056899;28;1417;-62
2021/08/11 06:54:12;;;;;;;;;;;;;;;26.01;60.56;100842.66;5056797;28;1580;-61
2021/08/11 06:56:40;;;;;;;;;;;;;;;26.03;60.44;100835.19;5052663;28;1339;-61
2021/08/11 06:59:07;;;;;;;;;;;;;;;26.03;60.37;100846.88;5053681;28;1082;-61
2021/08/11 07:01:34;;;;;;;;;;;;;;;26.06;60.03;100838.34;5057171;28;1980;-62
2021/08/11 07:04:01;;;;;;;;;;;;;;;26.06;60.43;100829.41;5056834;28;1511;-61
2021/08/11 07:06:27;;;;;;;;;;;;;;;26.09;60.02;100845.31;5055226;28;1483;-61
2021/08/11 07:08:54;;;;;;;;;;;;;;;26.14;59.82;100851.88;5056552;28;1370;-63
2021/08/11 07:11:20;;;;;;;;;;;;;;;26.17;60.00;100859.63;5056711;28;1345;-59
2021/08/11 07:13:48;;;;;;;;;;;;;;;26.17;59.60;100837.94;5056720;28;1759;-64
2021/08/11 07:16:15;;;;;;;;;;;;;;;26.16;59.14;100844.41;5056838;28;1738;-60
2021/08/11 07:18:42;;;;;;;;;;;;;;;26.14;59.65;100853.72;5051938;28;1692;-64
2021/08/11 07:21:08;;;;;;;;;;;;;;;26.14;59.96;100838.31;5056314;28;1969;-64
2021/08/11 07:23:35;;;;;;;;;;;;;;;26.12;59.58;100845.78;5055166;28;1619;-60
2021/08/11 07:26:01;;;;;;;;;;;;;;;26.08;61.59;100851.72;5054938;28;1515;-59
2021/08/11 07:28:28;;;;;;;;;;;;;;;25.57;61.50;100860.31;5056066;28;1468;-61
2021/08/11 07:30:56;;;;;;;;;;;;;;;24.86;59.63;100846.66;5056034;28;1743;-61
2021/08/11 07:33:24;;;;;;;;;;;;;;;24.46;59.90;100867.28;5056118;28;1584;-62
2021/08/11 07:35:51;;;;;;;;;;;;;;;24.36;58.96;100864.75;5056603;28;1310;-61
2021/08/11 07:38:18;;;;;;;;;;;;;;;24.30;59.48;100856.50;5055923;28;1707;-62
2021/08/11 07:40:45;;;;;;;;;;;;;;;24.30;58.67;100857.31;5055277;28;1965;-61
2021/08/11 07:43:11;;;;;;;;;;;;;;;24.45;58.37;100853.94;5056231;28;1584;-62
2021/08/11 07:45:38;;;;;;;;;;;;;;;24.55;59.10;100854.63;5055800;28;1372;-62
2021/08/11 07:48:06;;;;;;;;;;;;;;;24.55;59.16;100860.03;5055809;28;1565;-59
2021/08/11 07:50:34;;;;;;;;;;;;;;;24.45;60.45;100860.19;5056617;28;1079;-59
2021/08/11 07:53:00;;;;;;;;;;;;;;;24.31;60.40;100864.44;5054840;28;1539;-62
2021/08/11 07:55:27;;;;;;;;;;;;;;;24.33;60.97;100856.13;5055290;28;1516;-62
2021/08/11 07:57:53;;;;;;;;;;;;;;;24.36;60.85;100866.63;5053108;28;1623;-59
2021/08/11 08:00:22;;;;;;;;;;;;;;;24.18;61.60;100845.16;5055423;28;1612;-61
2021/08/11 08:02:49;;;;;;;;;;;;;;;24.15;61.08;100848.19;5055031;28;1971;-60
2021/08/11 08:05:17;;;;;;;;;;;;;;;24.19;61.91;100861.22;5056083;28;1364;-60
2021/08/11 08:07:44;;;;;;;;;;;;;;;24.15;61.72;100859.88;5053101;28;1970;-62
2021/08/11 08:10:11;;;;;;;;;;;;;;;24.46;60.28;100852.94;5055268;28;1704;-62
2021/08/11 08:12:39;;;;;;;;;;;;;;;24.21;61.95;100840.28;5055512;28;1524;-60
2021/08/11 08:15:06;;;;;;;;;;;;;;;24.31;61.96;100844.66;5056140;28;1040;-62
2021/08/11 08:17:33;;;;;;;;;;;;;;;24.29;61.89;100849.38;5053323;28;1578;-61
2021/08/11 08:19:59;;;;;;;;;;;;;;;24.29;62.46;100838.56;5050590;28;1414;-64
2021/08/11 08:22:27;;;;;;;;;;;;;;;24.26;62.78;100830.81;5044420;28;1902;-62
2021/08/11 08:24:55;;;;;;;;;;;;;;;24.26;62.81;100830.81;5049795;28;1171;-61
2021/08/11 08:27:23;;;;;;;;;;;;;;;24.40;62.94;100849.06;5041449;28;1398;-62
2021/08/11 08:29:49;;;;;;;;;;;;;;;24.27;63.34;100836.03;5042179;28;1350;-61
2021/08/11 08:32:16;;;;;;;;;;;;;;;24.28;62.67;100845.84;5043736;28;1572;-68
2021/08/11 08:34:43;;;;;;;;;;;;;;;24.15;63.23;100827.44;5052827;28;1398;-59
2021/08/11 08:37:09;;;;;;;;;;;;;;;24.16;62.68;100821.00;5044847;28;1567;-63
2021/08/11 08:39:37;;;;;;;;;;;;;;;23.96;62.00;100819.66;5045723;28;1136;-61
2021/08/11 08:42:05;;;;;;;;;;;;;;;23.90;60.72;100823.84;5044501;28;1989;-62
2021/08/11 08:44:31;;;;;;;;;;;;;;;23.74;59.97;100813.84;5042383;28;1520;-63
2021/08/11 08:46:59;;;;;;;;;;;;;;;23.48;60.16;100821.22;5043035;28;1304;-61
2021/08/11 08:49:26;;;;;;;;;;;;;;;23.60;59.18;100818.03;5045598;28;1392;-60
2021/08/11 08:51:54;;;;;;;;;;;;;;;23.62;58.82;100809.78;5043742;28;1306;-62
2021/08/11 08:54:23;;;;;;;;;;;;;;;23.64;59.84;100813.16;5050537;28;1450;-62
2021/08/11 08:56:51;;;;;;;;;;;;;;;23.70;60.31;100820.59;5048785;28;1508;-62
2021/08/11 08:59:18;;;;;;;;;;;;;;;23.82;60.45;100821.97;5047139;28;1272;-59
2021/08/11 09:01:44;;;;;;;;;;;;;;;23.80;60.39;100813.22;5043809;28;1902;-62
2021/08/11 09:04:11;;;;;;;;;;;;;;;23.85;60.85;100803.75;5042337;28;1751;-60
2021/08/11 09:06:38;;;;;;;;;;;;;;;23.84;60.94;100802.94;5036533;28;1513;-62
2021/08/11 09:09:07;;;;;;;;;;;;;;;23.79;62.47;100800.69;5049863;28;1310;-60
2021/08/11 09:11:34;;;;;;;;;;;;;;;24.00;62.40;100819.13;5047172;28;1421;-60
2021/08/11 09:14:18;;;;;;;;;;;;;;;23.96;62.67;100792.66;5051938;28;1681;-60
2021/08/11 09:16:48;;;;;;;;;;;;;;;24.14;62.23;100793.31;5054432;28;1067;-60
2021/08/11 09:19:15;;;;;;;;;;;;;;;24.11;62.68;100782.84;5051837;28;1565;-60
2021/08/11 09:21:42;;;;;;;;;;;;;;;24.11;63.06;100799.03;5053339;28;1914;-61
2021/08/11 09:24:18;;;;;;;;;;;;;;;24.21;63.72;100799.75;5052959;28;1411;-60
2021/08/11 09:26:44;;;;;;;;;;;;;;;24.11;63.79;100793.63;5054016;28;1483;-61
2021/08/11 09:29:11;;;;;;;;;;;;;;;24.00;64.82;100785.88;5053600;28;1610;-60
2021/08/11 09:31:39;;;;;;;;;;;;;;;24.13;64.79;100786.25;5053791;28;1571;-61
2021/08/11 09:34:07;;;;;;;;;;;;;;;24.10;64.80;100774.91;5053219;28;1768;-62
2021/08/11 09:36:40;;;;;;;;;;;;;;;24.07;65.18;100783.34;5053863;28;1679;-60
2021/08/11 09:39:07;;;;;;;;;;;;;;;24.06;65.70;100790.63;5049801;28;1367;-60
2021/08/11 09:41:33;;;;;;;;;;;;;;;24.16;64.93;100777.78;5046447;28;1977;-60
2021/08/11 09:44:03;;;;;;;;;;;;;;;24.13;64.49;100797.03;5043638;28;1338;-62
2021/08/11 09:46:31;;;;;;;;;;;;;;;23.99;64.96;100768.84;5044325;28;1771;-61
2021/08/11 09:48:59;;;;;;;;;;;;;;;24.17;63.94;100792.13;5045267;28;1716;-60
2021/08/11 09:51:25;;;;;;;;;;;;;;;24.19;64.20;100780.16;5040804;28;1437;-62
2021/08/11 09:53:52;;;;;;;;;;;;;;;24.16;64.36;100790.44;5043637;28;1408;-62
2021/08/11 09:56:19;;;;;;;;;;;;;;;24.04;64.49;100781.84;5053962;28;1057;-62
2021/08/11 09:58:47;;;;;;;;;;;;;;;24.08;64.55;100769.69;5053864;28;1695;-60
2021/08/11 10:01:27;;;;;;;;;;;;;;;24.05;64.25;100767.31;5051609;28;1906;-60
2021/08/11 10:03:54;;;;;;;;;;;;;;;24.03;64.11;100758.53;5053867;28;1711;-60
2021/08/11 10:06:26;;;;;;;;;;;;;;;23.97;64.94;100762.78;5040114;28;1442;-60
2021/08/11 10:08:53;;;;;;;;;;;;;;;23.99;64.38;100757.19;5052366;28;1421;-61
2021/08/11 10:11:34;;;;;;;;;;;;;;;23.92;64.46;100759.72;5053901;28;1115;-61
2021/08/11 10:14:01;;;;;;;;;;;;;;;23.98;64.40;100769.00;5054376;28;1011;-60
2021/08/11 10:16:30;;;;;;;;;;;;;;;24.01;64.62;100765.94;5053978;28;1438;-60
2021/08/11 10:18:57;;;;;;;;;;;;;;;23.99;64.23;100760.75;5050449;28;1183;-60
2021/08/11 10:21:24;;;;;;;;;;;;;;;23.95;64.57;100748.56;5057749;28;1910;-62
2021/08/11 10:23:52;;;;;;;;;;;;;;;24.03;63.93;100755.81;5049598;28;1700;-62
2021/08/11 10:26:18;;;;;;;;;;;;;;;23.97;64.75;100748.41;5055735;28;1639;-59
2021/08/11 10:28:45;;;;;;;;;;;;;;;23.90;64.36;100758.22;5056950;28;1699;-63
2021/08/11 10:31:12;;;;;;;;;;;;;;;23.93;64.76;100749.75;5056854;28;1581;-59
2021/08/11 10:33:39;;;;;;;;;;;;;;;24.02;64.26;100756.84;5057070;28;1529;-62
2021/08/11 10:36:06;;;;;;;;;;;;;;;23.95;65.11;100745.03;5056991;28;1588;-62
2021/08/11 10:38:35;;;;;;;;;;;;;;;24.01;64.41;100756.00;5057766;28;1645;-60
2021/08/11 10:41:03;;;;;;;;;;;;;;;24.04;64.33;100741.31;5057042;28;1723;-60
2021/08/11 10:43:33;;;;;;;;;;;;;;;24.06;64.07;100742.00;5052477;28;1906;-62
2021/08/11 10:46:03;;;;;;;;;;;;;;;24.00;64.28;100743.50;5055945;28;1950;-60
2021/08/11 10:48:30;;;;;;;;;;;;;;;24.06;64.31;100736.59;5057307;28;1577;-62
2021/08/11 10:50:58;;;;;;;;;;;;;;;24.12;64.10;100733.19;5058043;28;950;-61
2021/08/11 10:53:25;;;;;;;;;;;;;;;24.01;64.42;100733.53;5056806;28;1725;-62
2021/08/11 10:55:52;;;;;;;;;;;;;;;23.99;64.64;100725.63;5057069;28;1671;-62
2021/08/11 11:01:40;;;;;;;;;;;;;;;23.99;64.94;100736.44;4866090;27;8247852;-50
2021/08/11 11:04:08;;;;;;;;;;;;;;;24.09;64.45;100724.59;5126221;27;1752;-50
2021/08/11 11:07:13;;;;;;;;;;;;;;;24.07;64.78;100740.13;5114809;28;1700;-49
2021/08/11 11:09:40;;;;;;;;;;;;;;;24.01;64.95;100738.94;5119278;27;1969;-50
2021/08/11 11:12:22;;;;;;;;;;;;;;;24.05;64.56;100724.09;5125308;28;1596;-50
2021/08/11 11:14:57;;;;;;;;;;;;;;;23.96;64.88;100717.00;5127947;27;1756;-50
2021/08/11 11:17:25;;;;;;;;;;;;;;;24.05;64.68;100718.69;5116636;28;1604;-50
2021/08/11 11:20:24;;;;;;;;;;;;;;;23.96;64.73;100711.63;5120499;27;1976;-49
2021/08/11 11:22:53;;;;;;;;;;;;;;;23.95;65.13;100704.50;5119628;28;1949;-50
2021/08/11 11:25:20;;;;;;;;;;;;;;;23.94;65.29;100709.06;5121331;27;1814;-50
2021/08/11 11:27:54;;;;;;;;;;;;;;;24.02;64.73;100702.81;5125171;28;1845;-50
2021/08/11 11:30:45;;;;;;;;;;;;;;;24.08;64.46;100699.44;5128030;27;1725;-50
2021/08/11 11:33:32;;;;;;;;;;;;;;;24.06;64.55;100706.88;5100961;28;2013;-50
2021/08/11 11:36:17;;;;;;;;;;;;;;;24.05;64.45;100707.88;5130144;27;1583;-50
2021/08/11 11:38:59;;;;;;;;;;;;;;;24.07;64.62;100684.22;5127345;28;1560;-50
2021/08/11 11:41:26;;;;;;;;;;;;;;;24.13;64.18;100688.97;5120103;28;1970;-50
2021/08/11 11:43:56;;;;;;;;;;;;;;;24.09;65.10;100698.41;5126380;28;1733;-51
2021/08/11 11:46:37;;;;;;;;;;;;;;;24.03;64.90;100688.28;5125870;28;1590;-50
2021/08/11 11:49:17;;;;;;;;;;;;;;;24.10;64.35;100696.56;5121915;28;1715;-51
2021/08/11 11:51:44;;;;;;;;;;;;;;;24.04;65.13;100675.66;5114565;28;1495;-50
2021/08/11 11:54:10;;;;;;;;;;;;;;;23.99;64.36;100693.22;5125038;28;1512;-51
2021/08/11 11:56:38;;;;;;;;;;;;;;;23.98;64.34;100685.28;5127292;28;1665;-51
2021/08/11 11:59:07;;;;;;;;;;;;;;;23.99;64.42;100676.13;5117650;28;1910;-50
2021/08/11 12:01:35;;;;;;;;;;;;;;;24.04;63.98;100690.00;5123875;28;1625;-50
2021/08/11 12:04:03;;;;;;;;;;;;;;;24.05;64.70;100678.16;5124167;28;1757;-51
2021/08/11 12:06:36;;;;;;;;;;;;;;;24.05;63.95;100675.47;5128131;28;1644;-50
2021/08/11 12:09:03;;;;;;;;;;;;;;;24.08;63.72;100685.09;5123612;28;1691;-50
2021/08/11 12:11:30;;;;;;;;;;;;;;;24.09;64.19;100670.56;5111529;28;1536;-50
2021/08/11 12:13:57;;;;;;;;;;;;;;;24.07;64.21;100665.31;5112467;28;1599;-49
2021/08/11 12:16:33;;;;;;;;;;;;;;;23.98;64.00;100671.78;5111832;28;1748;-50
2021/08/11 12:19:09;;;;;;;;;;;;;;;23.95;63.93;100661.28;5111665;28;1644;-50
2021/08/11 12:21:35;;;;;;;;;;;;;;;23.88;63.97;100660.31;5114531;28;2041;-50
2021/08/11 12:24:02;;;;;;;;;;;;;;;23.94;64.32;100656.91;5110326;28;1505;-50
2021/08/11 12:26:30;;;;;;;;;;;;;;;23.93;64.62;100653.34;5114158;28;1659;-51
2021/08/11 12:28:58;;;;;;;;;;;;;;;23.98;64.04;100655.56;5106421;28;1076;-50
2021/08/11 12:31:33;;;;;;;;;;;;;;;24.07;64.57;100656.38;5106733;28;1932;-50
2021/08/11 12:34:01;;;;;;;;;;;;;;;24.03;64.60;100645.06;5112389;28;1992;-50
2021/08/11 12:36:29;;;;;;;;;;;;;;;24.05;63.79;100647.59;5128663;27;1792;-50
2021/08/11 12:39:00;;;;;;;;;;;;;;;24.07;63.70;100651.81;5113733;28;1432;-51
2021/08/11 12:41:26;;;;;;;;;;;;;;;24.04;64.21;100645.94;5117179;27;1905;-50
2021/08/11 12:43:54;;;;;;;;;;;;;;;23.99;64.49;100641.03;5111257;28;1812;-50
2021/08/11 12:46:35;;;;;;;;;;;;;;;23.95;64.42;100642.38;5112984;28;1916;-50
2021/08/11 12:49:14;;;;;;;;;;;;;;;24.00;63.75;100651.66;5109192;28;1904;-50
2021/08/11 12:51:41;;;;;;;;;;;;;;;23.97;64.29;100645.75;5104682;28;1583;-50
2021/08/11 12:54:08;;;;;;;;;;;;;;;23.92;64.34;100630.06;5109660;28;1522;-51
2021/08/11 12:56:53;;;;;;;;;;;;;;;23.88;64.13;100636.00;5111514;28;1562;-50